Time;durP1;ratioP1;P1;durP2;ratioP2;P2;SDS_P1;SDS_P2;PMS_P1;PMS_P2;Temp;Humidity;BMP_temperature;BMP_pressure;BME280_temperature;BME280_humidity;BME280_pressure;Samples;Min_cycle;Max_cycle;Signal;HPM_P1;HPM_P2
2023/04/13 00:01:31;;;;;;;2.65;1.58;;;5.40;99.90;;;;;;7403329;19;20475;-78
2023/04/13 00:04:01;;;;;;;3.53;1.75;;;5.40;99.90;;;;;;7402084;19;20241;-77
2023/04/13 00:06:31;;;;;;;3.08;1.33;;;5.40;99.90;;;;;;7401193;19;20719;-77
2023/04/13 00:09:01;;;;;;;1.77;1.30;;;6.60;99.90;;;;;;7400437;19;19931;-77
2023/04/13 00:11:33;;;;;;;3.40;1.50;;;6.30;99.90;;;;;;7402651;19;19922;-78
2023/04/13 00:14:02;;;;;;;2.72;1.40;;;5.50;99.90;;;;;;7402676;19;20664;-77
2023/04/13 00:16:31;;;;;;;3.50;2.00;;;5.70;99.90;;;;;;7401615;19;19929;-78
2023/04/13 00:19:00;;;;;;;3.75;1.45;;;5.80;99.90;;;;;;7398828;19;19943;-77
2023/04/13 00:21:29;;;;;;;5.95;1.65;;;5.40;99.90;;;;;;7402053;19;20588;-77
2023/04/13 00:23:58;;;;;;;3.20;1.92;;;5.30;99.90;;;;;;7398536;19;19927;-77
2023/04/13 00:26:27;;;;;;;3.33;2.08;;;4.60;99.90;;;;;;7397742;19;19989;-77
2023/04/13 00:29:01;;;;;;;;;;;5.30;99.90;;;;;;7402314;19;19927;-78
2023/04/13 00:31:30;;;;;;;4.28;1.90;;;5.20;99.90;;;;;;7401066;19;19923;-78
2023/04/13 00:33:59;;;;;;;3.13;1.90;;;5.40;99.90;;;;;;7400992;19;19970;-77
2023/04/13 00:36:28;;;;;;;8.02;2.05;;;4.50;99.90;;;;;;7400368;19;19922;-78
2023/04/13 00:38:57;;;;;;;2.50;1.55;;;4.50;99.90;;;;;;7402791;19;19939;-78
2023/04/13 00:41:27;;;;;;;2.58;1.70;;;5.20;99.90;;;;;;7402040;19;19918;-78
2023/04/13 00:43:57;;;;;;;3.03;2.17;;;5.50;99.90;;;;;;7402416;19;19923;-78
2023/04/13 00:46:29;;;;;;;4.10;2.15;;;5.50;99.90;;;;;;7400237;19;19922;-78
2023/04/13 00:49:00;;;;;;;3.25;2.22;;;5.50;99.90;;;;;;7401658;19;19990;-78
2023/04/13 00:51:31;;;;;;;4.85;1.75;;;5.50;99.90;;;;;;7401192;19;20356;-77
2023/04/13 00:54:01;;;;;;;5.40;2.20;;;5.50;99.90;;;;;;7397220;19;19939;-76
2023/04/13 00:56:30;;;;;;;3.40;2.08;;;5.50;99.90;;;;;;7402151;19;19923;-78
2023/04/13 00:58:59;;;;;;;3.22;1.98;;;6.80;99.90;;;;;;7402482;19;19923;-78
2023/04/13 01:01:31;;;;;;;2.17;1.63;;;5.50;99.90;;;;;;7402449;19;19938;-78
2023/04/13 01:03:59;;;;;;;5.95;2.20;;;6.00;99.90;;;;;;7402469;19;19922;-77
2023/04/13 01:06:35;;;;;;;4.30;2.40;;;5.70;99.90;;;;;;7401600;19;19919;-78
2023/04/13 01:09:12;;;;;;;3.20;1.90;;;5.50;99.90;;;;;;7400938;19;19933;-78
2023/04/13 01:11:49;;;;;;;3.38;2.10;;;6.10;99.90;;;;;;7401444;19;20331;-77
2023/04/13 01:14:23;;;;;;;5.85;2.28;;;5.60;99.90;;;;;;7400194;19;19930;-77
2023/04/13 01:17:01;;;;;;;3.25;1.98;;;6.60;99.90;;;;;;7400841;19;20276;-77
2023/04/13 01:19:44;;;;;;;4.65;2.53;;;6.20;99.90;;;;;;7401188;19;19936;-77
2023/04/13 01:22:14;;;;;;;3.10;2.30;;;5.70;99.90;;;;;;7400336;19;19919;-78
2023/04/13 01:24:54;;;;;;;3.88;1.88;;;5.70;99.90;;;;;;7398600;19;20358;-77
2023/04/13 01:27:41;;;;;;;3.78;2.40;;;5.90;99.90;;;;;;7399443;19;20295;-77
2023/04/13 01:30:12;;;;;;;3.70;2.40;;;5.70;99.90;;;;;;7401892;19;19926;-76
2023/04/13 01:32:42;;;;;;;2.95;1.73;;;5.70;99.90;;;;;;7398989;19;19938;-75
2023/04/13 01:35:12;;;;;;;3.10;1.90;;;6.10;99.90;;;;;;7400733;19;19930;-77
2023/04/13 01:37:41;;;;;;;2.30;1.88;;;5.60;99.90;;;;;;7399678;19;19950;-77
2023/04/13 01:40:12;;;;;;;3.85;2.20;;;5.60;99.90;;;;;;7398562;19;20237;-77
2023/04/13 01:42:44;;;;;;;2.05;1.60;;;5.70;99.90;;;;;;7399968;19;20633;-77
2023/04/13 01:45:17;;;;;;;3.65;1.75;;;5.70;99.90;;;;;;7401897;19;19933;-77
2023/04/13 01:47:53;;;;;;;2.97;1.70;;;6.40;99.90;;;;;;7397166;19;20407;-77
2023/04/13 01:50:28;;;;;;;1.88;1.52;;;6.20;99.90;;;;;;7399845;19;19946;-77
2023/04/13 01:53:06;;;;;;;3.85;1.50;;;5.90;99.90;;;;;;7399058;19;20253;-78
2023/04/13 01:55:37;;;;;;;3.90;1.52;;;5.70;99.90;;;;;;7399617;19;20330;-77
2023/04/13 01:58:11;;;;;;;3.58;1.50;;;5.70;99.90;;;;;;7398651;19;20262;-77
2023/04/13 02:00:41;;;;;;;2.45;1.65;;;5.80;99.90;;;;;;7399908;19;20270;-77
2023/04/13 02:03:12;;;;;;;1.85;1.60;;;4.90;99.90;;;;;;7402841;19;19923;-78
2023/04/13 02:05:41;;;;;;;2.30;1.20;;;6.70;99.90;;;;;;7401699;19;19937;-77
2023/04/13 02:08:11;;;;;;;2.88;1.63;;;5.50;99.90;;;;;;7404538;19;19940;-78
2023/04/13 02:10:41;;;;;;;2.67;1.40;;;5.50;99.90;;;;;;7406498;19;20260;-77
2023/04/13 02:13:13;;;;;;;2.53;1.45;;;5.60;99.90;;;;;;7405313;19;20018;-77
2023/04/13 02:15:43;;;;;;;3.72;2.72;;;5.70;99.90;;;;;;7405853;19;19946;-78
2023/04/13 02:18:12;;;;;;;3.47;1.25;;;5.60;99.90;;;;;;7405166;19;20354;-78
2023/04/13 02:20:45;;;;;;;3.00;1.58;;;5.60;99.90;;;;;;7405518;19;19918;-78
2023/04/13 02:23:16;;;;;;;3.58;1.13;;;6.20;99.90;;;;;;7405117;19;19919;-77
2023/04/13 02:25:45;;;;;;;2.35;1.40;;;5.50;99.90;;;;;;7404237;19;19922;-78
2023/04/13 02:28:17;;;;;;;2.78;1.63;;;5.60;99.90;;;;;;7403035;19;19925;-78
2023/04/13 02:30:46;;;;;;;3.92;1.80;;;5.50;99.90;;;;;;7404372;19;19926;-77
2023/04/13 02:33:15;;;;;;;3.35;1.20;;;6.00;99.90;;;;;;7404465;19;20343;-77
2023/04/13 02:35:44;;;;;;;2.08;1.50;;;6.50;99.90;;;;;;7403672;19;19922;-77
2023/04/13 02:38:14;;;;;;;3.28;1.63;;;5.70;99.90;;;;;;7406118;19;19922;-78
2023/04/13 02:40:43;;;;;;;2.35;1.15;;;5.50;99.90;;;;;;7403415;19;20272;-77
2023/04/13 02:43:12;;;;;;;2.30;1.40;;;5.70;99.90;;;;;;7403262;19;20003;-78
2023/04/13 02:45:43;;;;;;;2.80;1.60;;;6.20;99.90;;;;;;7404367;19;19918;-78
2023/04/13 02:48:12;;;;;;;4.55;1.58;;;4.70;99.90;;;;;;7401262;19;19926;-77
2023/04/13 02:50:41;;;;;;;3.70;1.63;;;5.20;99.90;;;;;;7401758;19;19922;-78
2023/04/13 02:53:10;;;;;;;2.92;1.50;;;5.10;99.90;;;;;;7402041;19;20566;-77
2023/04/13 02:55:39;;;;;;;2.10;1.65;;;5.30;99.90;;;;;;7403023;19;20266;-78
2023/04/13 02:58:09;;;;;;;1.58;1.30;;;6.00;99.90;;;;;;7406654;19;19919;-76
2023/04/13 03:00:38;;;;;;;3.63;1.60;;;6.20;99.90;;;;;;7403782;19;19929;-77
2023/04/13 03:03:10;;;;;;;2.83;2.10;;;5.40;99.90;;;;;;7406749;19;19919;-76
2023/04/13 03:05:39;;;;;;;2.55;1.73;;;5.40;99.90;;;;;;7405497;19;20340;-77
2023/04/13 03:08:09;;;;;;;4.50;1.98;;;5.90;99.90;;;;;;7400200;19;20284;-79
2023/04/13 03:10:38;;;;;;;1.95;1.50;;;5.30;99.90;;;;;;7404169;19;20365;-77
2023/04/13 03:13:08;;;;;;;2.67;1.85;;;5.50;99.90;;;;;;7401192;19;19919;-77
2023/04/13 03:15:37;;;;;;;5.45;2.28;;;5.20;99.90;;;;;;7402590;19;19939;-76
2023/04/13 03:18:06;;;;;;;3.22;1.85;;;5.30;99.90;;;;;;7400391;19;19922;-77
2023/04/13 03:20:37;;;;;;;3.85;1.90;;;6.00;99.90;;;;;;7403795;19;19929;-76
2023/04/13 03:23:06;;;;;;;2.55;2.10;;;5.30;99.90;;;;;;7400959;19;19937;-75
2023/04/13 03:25:35;;;;;;;3.83;2.17;;;5.30;99.90;;;;;;7404059;19;19918;-77
2023/04/13 03:28:04;;;;;;;2.72;1.90;;;5.30;99.90;;;;;;7398801;19;19929;-77
2023/04/13 03:30:33;;;;;;;2.95;1.83;;;5.40;99.90;;;;;;7404078;19;19921;-76
2023/04/13 03:33:02;;;;;;;2.40;1.92;;;5.30;99.90;;;;;;7400271;19;19925;-77
2023/04/13 03:35:31;;;;;;;2.70;1.88;;;5.30;99.90;;;;;;7404336;19;19922;-77
2023/04/13 03:38:03;;;;;;;5.28;2.10;;;5.20;99.90;;;;;;7405402;19;19919;-76
2023/04/13 03:40:31;;;;;;;3.08;2.10;;;5.30;99.90;;;;;;7402384;19;19921;-77
2023/04/13 03:43:00;;;;;;;3.15;1.85;;;5.20;99.90;;;;;;7402337;19;19918;-77
2023/04/13 03:45:29;;;;;;;5.65;2.65;;;5.30;99.90;;;;;;7404295;19;19929;-76
2023/04/13 03:47:58;;;;;;;3.33;2.17;;;5.20;99.90;;;;;;7401345;19;19919;-77
2023/04/13 03:50:27;;;;;;;2.38;1.70;;;5.40;99.90;;;;;;7405171;19;20261;-76
2023/04/13 03:52:56;;;;;;;3.17;2.20;;;5.70;99.90;;;;;;7402634;19;19961;-77
2023/04/13 03:55:28;;;;;;;2.30;1.73;;;5.30;99.90;;;;;;7402023;19;19922;-77
2023/04/13 03:57:57;;;;;;;6.03;2.20;;;6.40;99.90;;;;;;7400139;19;19922;-78
2023/04/13 04:00:26;;;;;;;2.15;1.92;;;5.70;99.90;;;;;;7401543;19;19923;-77
2023/04/13 04:02:54;;;;;;;2.45;1.67;;;5.30;99.90;;;;;;7402457;19;19929;-77
2023/04/13 04:05:23;;;;;;;3.53;1.60;;;5.30;99.90;;;;;;7402489;19;20371;-77
2023/04/13 04:07:52;;;;;;;1.80;1.45;;;5.30;99.90;;;;;;7399690;19;19929;-77
2023/04/13 04:10:21;;;;;;;2.80;1.60;;;5.40;99.90;;;;;;7404516;19;19963;-77
2023/04/13 04:12:53;;;;;;;1.45;1.35;;;5.50;99.90;;;;;;7403251;19;19923;-77
2023/04/13 04:15:22;;;;;;;2.85;1.45;;;3.40;99.90;;;;;;7401686;19;19919;-77
2023/04/13 04:17:51;;;;;;;4.45;1.63;;;5.40;99.90;;;;;;7403389;19;19923;-77
2023/04/13 04:20:20;;;;;;;2.35;1.80;;;5.60;99.90;;;;;;7401683;19;19927;-77
2023/04/13 04:22:50;;;;;;;1.48;1.23;;;5.30;99.90;;;;;;7401357;19;19926;-77
2023/04/13 04:25:21;;;;;;;3.28;1.42;;;5.90;99.90;;;;;;7401960;19;20267;-76
2023/04/13 04:27:56;;;;;;;2.10;1.63;;;6.00;99.90;;;;;;7399544;19;19933;-77
2023/04/13 04:30:28;;;;;;;3.05;2.22;;;6.30;99.90;;;;;;7400405;19;19922;-77
2023/04/13 04:32:57;;;;;;;7.25;1.48;;;4.80;99.90;;;;;;7401112;19;19925;-78
2023/04/13 04:35:32;;;;;;;3.88;1.80;;;5.40;99.90;;;;;;7399830;19;19923;-77
2023/04/13 04:38:03;;;;;;;2.28;1.60;;;5.40;99.90;;;;;;7400122;19;19990;-77
2023/04/13 04:40:34;;;;;;;3.65;2.00;;;5.30;99.90;;;;;;7400010;19;20012;-77
2023/04/13 04:43:06;;;;;;;3.00;2.05;;;5.30;99.90;;;;;;7399931;19;19938;-76
2023/04/13 04:45:37;;;;;;;5.57;2.15;;;4.50;99.90;;;;;;7399938;19;19990;-77
2023/04/13 04:48:06;;;;;;;5.03;1.45;;;4.40;99.90;;;;;;7398073;19;19919;-76
2023/04/13 04:50:36;;;;;;;3.03;1.73;;;5.30;99.90;;;;;;7399522;19;19927;-77
2023/04/13 04:53:05;;;;;;;2.30;1.80;;;5.40;99.90;;;;;;7399567;19;19996;-75
2023/04/13 04:55:34;;;;;;;5.10;1.52;;;5.30;99.90;;;;;;7401569;19;19922;-77
2023/04/13 04:58:06;;;;;;;1.90;1.45;;;5.40;99.90;;;;;;7399202;19;19927;-77
2023/04/13 05:00:34;;;;;;;2.78;1.85;;;5.30;99.90;;;;;;7400990;19;19919;-77
2023/04/13 05:03:03;;;;;;;2.75;1.38;;;5.90;99.90;;;;;;7400035;19;19939;-77
2023/04/13 05:05:32;;;;;;;3.88;1.70;;;6.20;99.90;;;;;;7398938;19;20258;-77
2023/04/13 05:08:01;;;;;;;2.35;1.17;;;6.10;99.90;;;;;;7399496;19;19937;-78
2023/04/13 05:10:30;;;;;;;2.90;1.30;;;5.70;99.90;;;;;;7397436;19;19933;-76
2023/04/13 05:12:59;;;;;;;1.90;1.35;;;5.80;99.90;;;;;;7395866;19;19918;-76
2023/04/13 05:15:31;;;;;;;2.03;1.20;;;6.00;99.90;;;;;;7397650;19;19918;-77
2023/04/13 05:18:00;;;;;;;2.28;1.20;;;5.10;99.90;;;;;;7401593;19;19926;-76
2023/04/13 05:20:29;;;;;;;2.63;1.20;;;4.90;99.90;;;;;;7397589;19;19926;-77
2023/04/13 05:22:59;;;;;;;4.00;1.10;;;4.60;99.90;;;;;;7401246;19;19923;-77
2023/04/13 05:25:28;;;;;;;1.60;1.00;;;5.20;99.90;;;;;;7396270;19;19927;-77
2023/04/13 05:27:57;;;;;;;2.22;0.95;;;3.90;99.90;;;;;;7400233;19;19929;-77
2023/04/13 05:30:26;;;;;;;2.25;1.00;;;5.50;99.90;;;;;;7400234;19;19923;-77
2023/04/13 05:32:57;;;;;;;1.88;1.20;;;5.30;99.90;;;;;;7399071;19;19947;-76
2023/04/13 05:35:26;;;;;;;1.92;0.95;;;4.40;99.90;;;;;;7398448;19;19922;-77
2023/04/13 05:37:55;;;;;;;3.35;1.30;;;6.10;99.90;;;;;;7399439;19;19926;-77
2023/04/13 05:40:24;;;;;;;3.80;1.33;;;5.80;99.90;;;;;;7400640;19;19926;-77
2023/04/13 05:42:53;;;;;;;2.40;1.25;;;5.30;99.90;;;;;;7405288;19;19919;-77
2023/04/13 05:45:23;;;;;;;1.77;1.08;;;5.50;99.90;;;;;;7402891;19;19926;-77
2023/04/13 05:47:52;;;;;;;3.33;1.58;;;5.40;99.90;;;;;;7402340;19;20291;-77
2023/04/13 05:50:23;;;;;;;3.47;1.30;;;5.40;99.90;;;;;;7408121;19;19933;-77
2023/04/13 05:52:52;;;;;;;4.10;1.40;;;5.60;99.90;;;;;;7407177;19;19950;-77
2023/04/13 05:55:22;;;;;;;2.25;1.25;;;5.70;99.90;;;;;;7404546;19;19918;-77
2023/04/13 05:57:51;;;;;;;2.15;1.60;;;6.30;99.90;;;;;;7404633;19;19954;-77
2023/04/13 06:00:21;;;;;;;2.30;1.80;;;5.50;99.90;;;;;;7402817;19;19915;-78
2023/04/13 06:02:51;;;;;;;3.65;1.50;;;5.60;99.90;;;;;;7406772;19;20501;-78
2023/04/13 06:05:23;;;;;;;2.47;1.85;;;6.60;99.90;;;;;;7403321;19;19958;-78
2023/04/13 06:07:52;;;;;;;;;;;5.60;99.90;;;;;;7406273;19;19915;-78
2023/04/13 06:10:21;;;;;;;;;;;5.60;99.90;;;;;;7404770;19;19982;-77
2023/04/13 06:12:51;;;;;;;4.65;1.50;;;5.60;99.90;;;;;;7404374;19;19982;-77
2023/04/13 06:15:21;;;;;;;3.03;1.67;;;5.60;99.90;;;;;;7406388;19;20265;-78
2023/04/13 06:17:53;;;;;;;4.28;1.80;;;5.60;99.90;;;;;;7405716;19;20000;-79
2023/04/13 06:20:25;;;;;;;3.05;1.52;;;5.80;99.90;;;;;;7405497;19;19926;-78
2023/04/13 06:22:54;;;;;;;2.70;1.10;;;5.70;99.90;;;;;;7405667;19;19926;-82
2023/04/13 06:25:23;;;;;;;2.25;1.30;;;5.70;99.90;;;;;;7405697;19;19922;-77
2023/04/13 06:27:52;;;;;;;2.30;1.35;;;6.60;99.90;;;;;;7402611;19;19922;-77
2023/04/13 06:30:21;;;;;;;6.60;2.15;;;5.40;99.90;;;;;;7401187;19;19930;-77
2023/04/13 06:32:50;;;;;;;3.55;1.55;;;5.80;99.90;;;;;;7397146;19;19919;-76
2023/04/13 06:35:19;;;;;;;1.63;1.33;;;5.80;99.90;;;;;;7400296;19;19945;-77
2023/04/13 06:37:51;;;;;;;4.03;1.90;;;5.40;99.90;;;;;;7404813;19;19919;-77
2023/04/13 06:40:20;;;;;;;2.30;1.40;;;7.50;99.90;;;;;;7404716;19;19922;-77
2023/04/13 06:42:49;;;;;;;3.38;1.20;;;6.00;99.90;;;;;;7402751;19;19918;-77
2023/04/13 06:45:18;;;;;;;8.73;1.92;;;7.00;99.90;;;;;;7403801;19;20266;-77
2023/04/13 06:47:48;;;;;;;3.63;1.30;;;6.10;99.90;;;;;;7403819;19;19937;-76
2023/04/13 06:50:17;;;;;;;4.28;1.88;;;6.20;99.90;;;;;;7401976;19;19949;-77
2023/04/13 06:52:48;;;;;;;4.55;1.77;;;6.30;99.90;;;;;;7402380;19;19923;-77
2023/04/13 06:55:20;;;;;;;7.20;1.90;;;6.00;99.90;;;;;;7402710;19;19923;-77
2023/04/13 06:57:49;;;;;;;1.88;1.48;;;6.10;99.90;;;;;;7403283;19;19982;-77
2023/04/13 07:00:18;;;;;;;3.30;1.60;;;6.30;99.90;;;;;;7401528;19;19970;-76
2023/04/13 07:02:47;;;;;;;3.10;1.90;;;6.30;99.90;;;;;;7403822;19;19982;-75
2023/04/13 07:05:17;;;;;;;5.47;2.08;;;6.40;99.90;;;;;;7405898;19;20348;-77
2023/04/13 07:07:45;;;;;;;5.00;1.80;;;6.50;99.90;;;;;;7402724;19;19930;-77
2023/04/13 07:10:14;;;;;;;4.40;1.85;;;6.50;99.90;;;;;;7404985;19;19923;-76
2023/04/13 07:12:46;;;;;;;4.35;2.55;;;6.50;99.90;;;;;;7401703;19;19915;-76
2023/04/13 07:15:15;;;;;;;4.85;1.45;;;6.40;99.90;;;;;;7403905;19;19923;-76
2023/04/13 07:17:44;;;;;;;3.67;2.15;;;6.40;99.90;;;;;;7404181;19;19974;-77
2023/04/13 07:20:15;;;;;;;2.58;1.65;;;6.50;99.90;;;;;;7402275;19;19919;-76
2023/04/13 07:22:43;;;;;;;2.92;2.13;;;6.40;99.90;;;;;;7402614;19;19923;-77
2023/04/13 07:25:12;;;;;;;4.70;2.15;;;6.60;99.90;;;;;;7402385;19;19927;-77
2023/04/13 07:27:41;;;;;;;3.97;2.22;;;6.40;99.90;;;;;;7402885;19;19935;-77
2023/04/13 07:30:14;;;;;;;2.78;2.50;;;6.60;99.90;;;;;;7400751;19;20368;-77
2023/04/13 07:32:43;;;;;;;5.53;2.63;;;6.60;99.90;;;;;;7401655;19;19926;-77
2023/04/13 07:35:12;;;;;;;7.32;2.75;;;6.80;99.90;;;;;;7401693;19;19937;-78
2023/04/13 07:37:41;;;;;;;6.80;2.50;;;6.60;99.90;;;;;;7403102;19;19922;-77
2023/04/13 07:40:11;;;;;;;5.57;2.03;;;6.70;99.90;;;;;;7401957;19;19932;-77
2023/04/13 07:42:40;;;;;;;4.28;1.92;;;6.70;99.90;;;;;;7401803;19;19945;-77
2023/04/13 07:45:14;;;;;;;7.78;2.15;;;7.30;99.90;;;;;;7403027;19;19930;-77
2023/04/13 07:47:43;;;;;;;3.20;1.80;;;6.70;99.90;;;;;;7402877;19;19934;-77
2023/04/13 07:50:12;;;;;;;3.72;1.80;;;6.80;99.90;;;;;;7403406;19;20245;-77
2023/04/13 07:52:41;;;;;;;3.83;1.35;;;6.90;99.90;;;;;;7401273;19;19922;-77
2023/04/13 07:55:11;;;;;;;6.82;2.20;;;7.00;99.90;;;;;;7400666;19;19929;-76
2023/04/13 07:57:40;;;;;;;3.95;2.00;;;7.10;99.90;;;;;;7403058;19;19926;-76
2023/04/13 08:00:11;;;;;;;6.03;1.70;;;7.30;99.90;;;;;;7401628;19;19922;-77
2023/04/13 08:02:42;;;;;;;3.45;1.48;;;7.40;99.90;;;;;;7401312;19;19927;-76
2023/04/13 08:05:12;;;;;;;2.83;1.35;;;7.30;99.90;;;;;;7401330;19;19937;-76
2023/04/13 08:07:45;;;;;;;4.80;1.70;;;7.30;99.90;;;;;;7400017;19;19924;-77
2023/04/13 08:10:14;;;;;;;4.28;1.85;;;7.40;99.90;;;;;;7401084;19;19961;-77
2023/04/13 08:12:42;;;;;;;4.30;1.83;;;7.40;99.90;;;;;;7401002;19;20237;-77
2023/04/13 08:15:12;;;;;;;4.13;1.73;;;7.80;99.90;;;;;;7401257;19;20344;-77
2023/04/13 08:17:43;;;;;;;4.47;1.83;;;7.40;99.90;;;;;;7401558;19;19922;-77
2023/04/13 08:20:13;;;;;;;5.95;1.80;;;7.50;99.90;;;;;;7402331;19;19923;-77
2023/04/13 08:22:44;;;;;;;3.00;1.60;;;7.50;99.90;;;;;;7400569;19;19918;-76
2023/04/13 08:25:13;;;;;;;3.50;1.48;;;7.50;99.90;;;;;;7401306;19;20304;-76
2023/04/13 08:27:42;;;;;;;3.67;1.35;;;7.50;99.90;;;;;;7402415;19;19919;-77
2023/04/13 08:30:13;;;;;;;4.28;1.40;;;7.60;99.90;;;;;;7399921;19;19919;-77
2023/04/13 08:32:45;;;;;;;8.43;2.58;;;7.50;99.90;;;;;;7401933;19;19918;-77
2023/04/13 08:35:14;;;;;;;4.32;1.50;;;7.50;99.90;;;;;;7399481;19;19933;-77
2023/04/13 08:37:43;;;;;;;4.82;1.40;;;7.50;99.90;;;;;;7401510;19;19923;-77
2023/04/13 08:40:13;;;;;;;2.95;1.30;;;7.60;99.90;;;;;;7399722;19;19946;-78
2023/04/13 08:42:43;;;;;;;1.98;1.10;;;7.50;99.90;;;;;;7403176;19;19915;-77
2023/04/13 08:45:13;;;;;;;1.90;1.20;;;7.70;99.90;;;;;;7401302;19;19930;-78
2023/04/13 08:47:45;;;;;;;1.08;0.77;;;7.80;99.90;;;;;;7400940;19;19933;-77
2023/04/13 08:50:14;;;;;;;;;;;7.90;99.90;;;;;;7403995;19;19974;-77
2023/04/13 08:52:43;;;;;;;7.57;1.52;;;8.10;99.90;;;;;;7402530;19;19926;-77
2023/04/13 08:55:14;;;;;;;1.80;1.20;;;8.50;99.90;;;;;;7403647;19;19923;-77
2023/04/13 08:57:44;;;;;;;6.65;1.45;;;8.10;99.90;;;;;;7406016;19;19915;-78
2023/04/13 09:00:16;;;;;;;2.85;1.00;;;8.10;99.90;;;;;;7401015;19;19918;-78
2023/04/13 09:02:53;;;;;;;2.13;1.00;;;7.80;99.90;;;;;;7401912;19;19915;-77
2023/04/13 09:05:25;;;;;;;3.75;1.25;;;7.80;99.90;;;;;;7399280;19;20352;-77
2023/04/13 09:07:56;;;;;;;1.23;0.93;;;8.00;99.90;;;;;;7400596;19;19922;-77
2023/04/13 09:10:25;;;;;;;2.17;0.95;;;7.90;99.90;;;;;;7400973;19;20618;-76
2023/04/13 09:12:54;;;;;;;1.98;1.10;;;7.80;99.90;;;;;;7399202;19;19932;-76
2023/04/13 09:15:24;;;;;;;1.42;0.90;;;7.80;99.90;;;;;;7399698;19;19929;-77
2023/04/13 09:17:56;;;;;;;1.65;0.90;;;7.80;99.90;;;;;;7400798;19;20010;-76
2023/04/13 09:20:26;;;;;;;1.83;0.80;;;7.70;99.90;;;;;;7398663;19;19930;-76
2023/04/13 09:22:56;;;;;;;5.45;1.20;;;7.60;99.90;;;;;;7396685;19;20371;-75
2023/04/13 09:25:26;;;;;;;1.17;0.93;;;7.40;99.90;;;;;;7399751;19;19932;-77
2023/04/13 09:27:56;;;;;;;2.00;1.27;;;7.30;99.90;;;;;;7399721;19;19926;-78
2023/04/13 09:30:26;;;;;;;5.15;1.77;;;7.30;99.90;;;;;;7397236;19;19930;-77
2023/04/13 09:33:09;;;;;;;3.55;1.00;;;7.40;99.90;;;;;;7398202;19;19919;-77
2023/04/13 09:35:39;;;;;;;2.28;0.90;;;7.60;99.90;;;;;;7399322;19;20284;-77
2023/04/13 09:38:10;;;;;;;2.75;0.77;;;7.20;99.90;;;;;;7400674;19;19939;-77
2023/04/13 09:40:52;;;;;;;1.05;0.80;;;7.20;99.90;;;;;;7399364;19;19917;-76
2023/04/13 09:43:21;;;;;;;0.90;0.50;;;8.00;99.90;;;;;;7400818;19;20451;-76
2023/04/13 09:45:51;;;;;;;0.30;0.30;;;7.60;99.90;;;;;;7401734;19;19925;-80
2023/04/13 09:48:24;;;;;;;0.37;0.30;;;7.50;99.90;;;;;;7402090;19;19931;-73
2023/04/13 09:51:04;;;;;;;0.52;0.30;;;7.50;99.90;;;;;;7400831;19;20223;-74
2023/04/13 09:53:41;;;;;;;1.45;0.40;;;7.60;99.90;;;;;;7399907;19;19946;-73
2023/04/13 09:56:11;;;;;;;1.45;0.35;;;7.80;99.90;;;;;;7400478;19;20278;-73
2023/04/13 09:58:44;;;;;;;0.85;0.50;;;7.80;99.90;;;;;;7398223;19;19922;-73
2023/04/13 10:01:14;;;;;;;1.17;0.20;;;7.70;99.90;;;;;;7391600;19;19926;-73
2023/04/13 10:03:46;;;;;;;0.65;0.38;;;7.80;99.90;;;;;;7400352;19;20305;-74
2023/04/13 10:06:15;;;;;;;0.10;0.10;;;7.90;99.90;;;;;;7396190;19;19982;-75
2023/04/13 10:08:45;;;;;;;0.82;0.60;;;7.90;99.90;;;;;;7394425;19;19925;-75
2023/04/13 10:11:15;;;;;;;0.98;0.32;;;8.10;99.90;;;;;;7398338;19;20289;-75
2023/04/13 10:13:49;;;;;;;0.60;0.50;;;8.30;99.90;;;;;;7397545;19;20293;-75
2023/04/13 10:16:45;;;;;;;1.85;0.80;;;8.40;99.90;;;;;;7397070;19;19926;-75
2023/04/13 10:19:21;;;;;;;0.52;0.43;;;8.30;99.90;;;;;;7397034;19;19926;-75
2023/04/13 10:21:53;;;;;;;1.63;0.77;;;8.40;99.90;;;;;;7396113;19;19922;-75
2023/04/13 10:24:24;;;;;;;1.58;0.60;;;8.40;99.90;;;;;;7395486;19;19919;-75
2023/04/13 10:26:55;;;;;;;3.53;0.70;;;8.40;99.90;;;;;;7398161;19;20355;-75
2023/04/13 10:29:30;;;;;;;1.13;0.57;;;8.70;99.90;;;;;;7400859;19;19927;-76
2023/04/13 10:32:02;;;;;;;1.45;0.50;;;8.50;99.90;;;;;;7406179;19;19927;-75
2023/04/13 10:34:34;;;;;;;;;;;8.30;99.90;;;;;;7405839;19;19919;-76
2023/04/13 10:37:06;;;;;;;2.55;0.47;;;8.30;99.90;;;;;;7403441;19;20281;-77
2023/04/13 10:39:36;;;;;;;1.48;0.50;;;8.10;99.90;;;;;;7404618;19;20352;-78
2023/04/13 10:42:06;;;;;;;0.88;0.75;;;8.10;99.90;;;;;;7404280;19;20347;-81
2023/04/13 10:44:46;;;;;;;1.52;0.32;;;7.80;99.90;;;;;;7405663;19;20297;-81
2023/04/13 10:47:16;;;;;;;3.33;0.40;;;7.60;99.90;;;;;;7405733;19;19918;-76
2023/04/13 10:49:48;;;;;;;0.35;0.20;;;7.20;99.90;;;;;;7401825;19;19922;-76
2023/04/13 10:52:18;;;;;;;2.65;0.40;;;7.00;99.90;;;;;;7401243;19;19919;-75
2023/04/13 10:54:47;;;;;;;2.38;1.35;;;6.80;99.90;;;;;;7404048;19;19922;-76
2023/04/13 10:57:16;;;;;;;0.70;0.30;;;6.90;99.90;;;;;;7405070;19;20558;-75
2023/04/13 10:59:48;;;;;;;1.63;0.38;;;7.40;99.90;;;;;;7403386;19;19928;-75
2023/04/13 11:02:18;;;;;;;0.17;0.17;;;6.90;99.90;;;;;;7402840;19;19979;-75
2023/04/13 11:04:50;;;;;;;1.10;0.30;;;7.00;99.90;;;;;;7402544;19;20379;-75
2023/04/13 11:07:22;;;;;;;2.03;0.25;;;7.00;99.90;;;;;;7404087;19;19929;-75
2023/04/13 11:09:52;;;;;;;1.27;0.60;;;6.90;99.90;;;;;;7401779;19;19919;-76
2023/04/13 11:12:21;;;;;;;0.77;0.70;;;7.20;99.90;;;;;;7402247;19;19927;-75
2023/04/13 11:14:51;;;;;;;2.17;0.73;;;7.70;99.90;;;;;;7403415;19;19922;-76
2023/04/13 11:17:21;;;;;;;0.88;0.20;;;6.90;99.90;;;;;;7402719;19;19940;-76
2023/04/13 11:19:55;;;;;;;0.70;0.20;;;8.00;99.90;;;;;;7401989;19;19918;-75
2023/04/13 11:22:26;;;;;;;1.40;0.20;;;7.20;99.90;;;;;;7401895;19;19957;-82
2023/04/13 11:25:08;;;;;;;1.55;0.43;;;7.00;99.90;;;;;;7399726;19;19918;-80
2023/04/13 11:27:37;;;;;;;1.05;0.40;;;7.00;99.90;;;;;;7402677;19;19936;-80
2023/04/13 11:30:09;;;;;;;0.32;0.32;;;7.20;99.90;;;;;;7398331;19;20362;-81
2023/04/13 11:32:42;;;;;;;2.28;0.40;;;9.10;99.90;;;;;;7400698;19;19978;-80
2023/04/13 11:35:15;;;;;;;1.75;0.50;;;7.40;99.90;;;;;;7403457;19;19915;-81
2023/04/13 11:37:48;;;;;;;1.52;0.50;;;7.70;99.90;;;;;;7399543;19;19929;-80
2023/04/13 11:40:19;;;;;;;3.15;0.60;;;8.00;99.90;;;;;;7402436;19;19941;-80
2023/04/13 11:42:49;;;;;;;2.08;0.90;;;8.40;99.90;;;;;;7402544;19;20596;-80
2023/04/13 11:45:19;;;;;;;4.88;1.13;;;8.00;99.90;;;;;;7403456;19;19918;-80
2023/04/13 11:47:48;;;;;;;3.78;1.30;;;8.20;99.90;;;;;;7403041;19;19923;-80
2023/04/13 11:50:21;;;;;;;3.58;0.95;;;8.20;99.90;;;;;;7401438;19;19950;-80
2023/04/13 11:52:55;;;;;;;5.80;1.90;;;8.40;99.90;;;;;;7403848;19;19929;-80
2023/04/13 11:55:25;;;;;;;3.75;0.90;;;9.20;99.90;;;;;;7404773;19;19915;-80
2023/04/13 11:57:55;;;;;;;5.85;1.10;;;8.80;99.90;;;;;;7402300;19;20305;-79
2023/04/13 12:00:25;;;;;;;6.75;1.45;;;9.50;99.90;;;;;;7402583;19;19927;-79
2023/04/13 12:02:56;;;;;;;3.45;0.98;;;9.30;99.90;;;;;;7403187;19;19946;-79
2023/04/13 12:05:29;;;;;;;2.65;0.80;;;9.40;99.90;;;;;;7402354;19;20283;-79
2023/04/13 12:07:59;;;;;;;8.23;1.48;;;9.50;99.90;;;;;;7400187;19;19918;-79
2023/04/13 12:10:33;;;;;;;6.05;1.08;;;9.60;99.90;;;;;;7402115;19;20269;-79
2023/04/13 12:13:05;;;;;;;3.55;0.95;;;9.40;99.90;;;;;;7402817;19;20323;-79
2023/04/13 12:15:35;;;;;;;6.18;1.23;;;9.30;99.90;;;;;;7401696;19;19950;-79
2023/04/13 12:18:05;;;;;;;5.80;0.93;;;9.20;99.90;;;;;;7400831;19;19922;-79
2023/04/13 12:20:43;;;;;;;6.00;1.20;;;9.30;99.90;;;;;;7400429;19;19922;-78
2023/04/13 12:23:19;;;;;;;3.58;1.00;;;9.60;99.90;;;;;;7402959;19;19959;-78
2023/04/13 12:25:59;;;;;;;7.97;2.63;;;9.70;99.90;;;;;;7401841;19;19923;-79
2023/04/13 12:28:31;;;;;;;5.25;0.90;;;9.60;99.90;;;;;;7399236;19;20367;-78
2023/04/13 12:31:08;;;;;;;2.83;1.00;;;9.80;99.90;;;;;;7400007;19;20993;-78
2023/04/13 12:33:37;;;;;;;5.20;1.00;;;9.80;99.90;;;;;;7401950;19;19928;-78
2023/04/13 12:36:10;;;;;;;7.45;1.10;;;9.70;99.90;;;;;;7400933;19;19918;-78
2023/04/13 12:38:39;;;;;;;5.25;1.42;;;9.70;99.90;;;;;;7400871;19;19929;-79
2023/04/13 12:41:11;;;;;;;3.85;0.88;;;9.60;99.90;;;;;;7400702;19;19990;-79
2023/04/13 12:43:40;;;;;;;;;;;9.50;99.90;;;;;;7403341;19;19919;-79
2023/04/13 12:46:09;;;;;;;3.47;1.15;;;9.70;99.90;;;;;;7398668;19;19923;-79
2023/04/13 12:48:37;;;;;;;4.15;0.80;;;9.60;99.90;;;;;;7401268;19;19929;-78
2023/04/13 12:51:09;;;;;;;5.72;1.13;;;9.80;99.90;;;;;;7398321;19;19918;-78
2023/04/13 12:53:38;;;;;;;1.63;0.70;;;9.80;99.90;;;;;;7398679;19;19926;-79
2023/04/13 12:56:08;;;;;;;3.67;0.70;;;10.20;99.90;;;;;;7400053;19;19993;-79
2023/04/13 12:58:37;;;;;;;2.08;0.60;;;9.60;99.90;;;;;;7399458;19;19925;-79
2023/04/13 13:01:07;;;;;;;5.15;0.85;;;9.60;99.90;;;;;;7399525;19;19922;-79
2023/04/13 13:03:36;;;;;;;4.03;0.85;;;9.60;99.90;;;;;;7399702;19;20356;-79
2023/04/13 13:06:09;;;;;;;3.83;0.82;;;9.70;99.90;;;;;;7401618;19;19946;-79
2023/04/13 13:08:38;;;;;;;5.05;1.05;;;9.50;99.90;;;;;;7397964;19;20291;-79
2023/04/13 13:11:07;;;;;;;4.45;1.42;;;9.50;99.90;;;;;;7398097;19;19982;-79
2023/04/13 13:13:36;;;;;;;6.15;1.15;;;9.40;99.90;;;;;;7399164;19;19919;-79
2023/04/13 13:16:06;;;;;;;3.83;0.77;;;9.30;99.90;;;;;;7399199;19;19933;-79